createdAt,value
2019-05-13T00:00:10.038Z,19.83
2019-05-13T00:02:43.608Z,16.17
2019-05-13T00:05:14.671Z,19.83
2019-05-13T00:07:45.721Z,17.13
2019-05-13T00:10:16.337Z,16.17
2019-05-13T00:12:47.137Z,18.80
2019-05-13T00:15:18.003Z,19.83
2019-05-13T00:17:48.731Z,14.07
2019-05-13T00:20:19.708Z,17.57
2019-05-13T00:22:50.671Z,15.33
2019-05-13T00:25:21.531Z,22.53
2019-05-13T00:27:53.691Z,17.30
2019-05-13T00:30:25.906Z,17.57
2019-05-13T00:32:56.913Z,13.33
2019-05-13T00:35:27.765Z,22.37
2019-05-13T00:37:58.606Z,17.90
2019-05-13T00:40:29.247Z,16.20
2019-05-13T00:42:59.762Z,17.73
2019-05-13T00:45:30.418Z,23.70
2019-05-13T00:48:01.138Z,20.23
2019-05-13T00:50:33.544Z,19.40
2019-05-13T00:53:04.476Z,21.83
2019-05-13T00:55:35.928Z,15.77
2019-05-13T00:58:06.508Z,23.67
2019-05-13T01:00:36.896Z,12.53
2019-05-13T01:03:07.343Z,18.33
2019-05-13T01:05:37.946Z,18.60
2019-05-13T01:08:09.711Z,22.93
2019-05-13T01:10:40.325Z,19.93
2019-05-13T01:13:10.860Z,19.43
2019-05-13T01:15:44.087Z,13.03
2019-05-13T01:18:14.435Z,11.43
2019-05-13T01:20:45.319Z,11.27
2019-05-13T01:23:16.095Z,20.70
2019-05-13T01:25:47.088Z,16.30
2019-05-13T01:28:17.602Z,12.90
2019-05-13T01:30:48.124Z,18.67
2019-05-13T01:33:18.829Z,21.23
2019-05-13T01:35:49.616Z,14.27
2019-05-13T01:38:20.298Z,20.83
2019-05-13T01:40:53.966Z,17.03
2019-05-13T01:43:24.645Z,18.97
2019-05-13T01:45:55.493Z,12.83
2019-05-13T01:48:26.400Z,17.70
2019-05-13T01:50:57.053Z,13.13
2019-05-13T01:53:27.622Z,15.30
2019-05-13T01:56:03.635Z,21.87
2019-05-13T01:58:34.103Z,12.00
2019-05-13T02:01:05.299Z,15.43
2019-05-13T02:03:36.634Z,24.40
2019-05-13T02:06:07.305Z,16.33
2019-05-13T02:08:38.110Z,19.30
2019-05-13T02:11:08.644Z,19.67
2019-05-13T02:13:39.949Z,17.70
2019-05-13T02:16:10.752Z,23.80
2019-05-13T02:18:41.335Z,14.83
2019-05-13T02:21:13.805Z,25.67
2019-05-13T02:23:44.427Z,20.57
2019-05-13T02:26:15.048Z,17.63
2019-05-13T02:28:45.588Z,20.33
2019-05-13T02:31:22.961Z,14.83
2019-05-13T02:33:48.640Z,8.10
2019-05-13T02:36:22.533Z,14.47
2019-05-13T02:38:53.155Z,14.33
2019-05-13T02:41:23.836Z,18.20
2019-05-13T02:43:54.562Z,13.40
2019-05-13T02:46:25.269Z,19.17
2019-05-13T02:48:55.742Z,19.73
2019-05-13T02:51:26.267Z,20.60
2019-05-13T02:53:57.131Z,20.77
2019-05-13T02:56:27.894Z,12.63
2019-05-13T02:58:58.661Z,14.70
2019-05-13T03:01:32.867Z,12.50
2019-05-13T03:04:03.030Z,14.03
2019-05-13T03:06:33.676Z,23.93
2019-05-13T03:09:06.903Z,19.13
2019-05-13T03:11:37.925Z,18.07
2019-05-13T03:14:08.535Z,23.83
2019-05-13T03:16:47.885Z,25.73
2019-05-13T03:19:18.424Z,26.73
2019-05-13T03:21:52.113Z,21.47
2019-05-13T03:24:22.733Z,19.67
2019-05-13T03:26:53.738Z,20.83
2019-05-13T03:29:26.669Z,22.03
2019-05-13T03:31:57.368Z,21.13
2019-05-13T03:34:28.024Z,26.57
2019-05-13T03:36:58.765Z,22.97
2019-05-13T03:39:33.093Z,15.20
2019-05-13T03:42:04.357Z,20.57
2019-05-13T03:44:35.232Z,20.10
2019-05-13T03:47:06.224Z,18.43
2019-05-13T03:49:36.899Z,19.60
2019-05-13T03:52:08.172Z,11.03
2019-05-13T03:54:43.316Z,18.87
2019-05-13T03:57:12.742Z,13.43
2019-05-13T03:59:43.852Z,35.63
2019-05-13T04:02:14.614Z,24.60
2019-05-13T04:04:45.482Z,14.27
2019-05-13T04:07:16.739Z,23.27
2019-05-13T04:09:47.198Z,18.07
2019-05-13T04:12:17.818Z,21.33
2019-05-13T04:14:48.414Z,20.40
2019-05-13T04:17:18.821Z,18.27
2019-05-13T04:19:53.012Z,17.27
2019-05-13T04:22:23.327Z,19.20
2019-05-13T04:24:55.494Z,22.63
2019-05-13T04:27:27.510Z,19.67
2019-05-13T04:29:58.529Z,7.73
2019-05-13T04:32:33.305Z,17.00
2019-05-13T04:35:03.754Z,10.43
2019-05-13T04:37:34.274Z,16.37
2019-05-13T04:40:06.153Z,15.70
2019-05-13T04:42:36.939Z,14.87
2019-05-13T04:45:07.987Z,7.43
2019-05-13T04:47:38.602Z,8.83
2019-05-13T04:50:09.231Z,15.20
2019-05-13T04:52:42.393Z,17.43
2019-05-13T04:55:16.879Z,15.23
2019-05-13T04:57:47.600Z,13.63
2019-05-13T05:00:24.123Z,15.20
2019-05-13T05:03:33.421Z,27.50
2019-05-13T05:06:33.467Z,21.10
2019-05-13T05:09:12.555Z,21.43
2019-05-13T05:12:28.464Z,16.33
2019-05-13T05:15:42.843Z,12.80
2019-05-13T05:18:48.460Z,11.30
2019-05-13T05:21:25.124Z,15.10
2019-05-13T05:25:03.972Z,17.23
2019-05-13T05:28:08.030Z,21.03
2019-05-13T05:31:04.129Z,18.83
2019-05-13T05:34:11.630Z,17.13
2019-05-13T05:37:47.073Z,16.17
2019-05-13T05:40:30.467Z,20.73
2019-05-13T05:42:54.974Z,12.63
2019-05-13T05:45:25.979Z,21.83
2019-05-13T05:47:58.218Z,34.63
2019-05-13T05:50:31.892Z,23.00
2019-05-13T05:53:05.404Z,20.97
2019-05-13T05:55:42.714Z,23.23
2019-05-13T05:58:15.062Z,19.70
2019-05-13T06:00:48.975Z,29.03
2019-05-13T06:03:22.455Z,26.67
2019-05-13T06:05:55.501Z,16.23
2019-05-13T06:08:27.478Z,29.67
2019-05-13T06:11:00.744Z,24.07
2019-05-13T06:13:32.071Z,29.17
2019-05-13T06:16:03.348Z,29.03
2019-05-13T06:18:36.075Z,26.57
2019-05-13T06:21:45.762Z,27.40
2019-05-13T06:24:16.965Z,30.70
2019-05-13T06:26:48.239Z,19.77
2019-05-13T06:29:22.340Z,24.60
2019-05-13T06:31:53.298Z,16.27
2019-05-13T06:34:24.509Z,30.03
2019-05-13T06:36:55.485Z,20.20
2019-05-13T06:39:27.678Z,16.40
2019-05-13T06:41:58.993Z,25.03
2019-05-13T06:44:31.637Z,10.63
2019-05-13T06:47:02.979Z,25.63
2019-05-13T06:49:34.094Z,25.30
2019-05-13T06:52:25.357Z,14.07
2019-05-13T06:54:56.589Z,20.40
2019-05-13T06:57:27.308Z,22.33
2019-05-13T07:00:01.574Z,21.57
2019-05-13T07:02:33.792Z,25.80
2019-05-13T07:05:07.334Z,16.67
2019-05-13T07:07:38.759Z,18.90
2019-05-13T07:10:12.513Z,17.37
2019-05-13T07:12:42.374Z,12.23
2019-05-13T07:15:13.278Z,17.77
2019-05-13T07:17:44.360Z,19.30
2019-05-13T07:20:15.518Z,12.50
2019-05-13T07:22:46.626Z,16.87
2019-05-13T07:25:22.039Z,21.87
2019-05-13T07:27:51.861Z,18.97
2019-05-13T07:30:42.501Z,21.03
2019-05-13T07:33:13.511Z,24.40
2019-05-13T07:35:46.101Z,18.10
2019-05-13T07:38:18.469Z,18.40
2019-05-13T07:40:53.039Z,11.70
2019-05-13T07:43:25.056Z,11.27
2019-05-13T07:46:06.338Z,19.50
2019-05-13T07:48:37.034Z,15.57
2019-05-13T07:54:54.404Z,12.33
2019-05-13T07:57:25.435Z,18.10
2019-05-13T08:00:02.533Z,14.37
2019-05-13T08:02:34.164Z,15.33
2019-05-13T08:05:06.435Z,18.90
2019-05-13T08:07:37.392Z,20.37
2019-05-13T08:10:11.386Z,17.77
2019-05-13T08:12:41.446Z,13.67
2019-05-13T08:15:14.461Z,17.07
2019-05-13T08:17:47.688Z,19.17
2019-05-13T08:20:21.910Z,20.90
2019-05-13T08:22:52.142Z,18.20
2019-05-13T08:25:23.398Z,20.00
2019-05-13T08:27:57.576Z,16.70
2019-05-13T08:30:31.835Z,16.10
2019-05-13T08:33:15.430Z,19.60
2019-05-13T08:35:52.474Z,16.50
2019-05-13T08:38:37.781Z,7.93
2019-05-13T08:41:09.746Z,20.07
2019-05-13T08:43:46.586Z,11.70
2019-05-13T08:46:21.695Z,13.33
2019-05-13T08:48:54.978Z,13.67
2019-05-13T08:55:21.446Z,11.87
2019-05-13T08:57:55.279Z,15.20
2019-05-13T09:00:49.338Z,10.07
2019-05-13T09:03:25.604Z,11.90
2019-05-13T09:05:57.434Z,8.43
2019-05-13T09:08:31.972Z,9.37
2019-05-13T09:11:05.428Z,15.83
2019-05-13T09:13:44.134Z,14.47
2019-05-13T09:16:21.295Z,18.27
2019-05-13T09:18:55.676Z,10.67
2019-05-13T09:21:27.636Z,9.93
2019-05-13T09:24:02.411Z,5.53
2019-05-13T09:26:38.251Z,9.80
2019-05-13T09:29:14.650Z,13.97
2019-05-13T09:31:46.963Z,13.70
2019-05-13T09:34:22.621Z,9.70
2019-05-13T09:36:54.370Z,12.07
2019-05-13T09:39:26.013Z,9.03
2019-05-13T09:41:58.164Z,8.97
2019-05-13T09:44:32.405Z,16.07
2019-05-13T09:47:04.710Z,5.53
2019-05-13T09:49:35.731Z,8.17
2019-05-13T09:56:06.383Z,15.50
2019-05-13T09:58:37.246Z,6.67
2019-05-13T10:01:08.791Z,6.93
2019-05-13T10:03:53.921Z,8.87
2019-05-13T10:06:15.082Z,13.17
2019-05-13T10:08:52.227Z,12.07
2019-05-13T10:11:30.696Z,6.73
2019-05-13T10:14:02.216Z,9.03
2019-05-13T10:16:42.561Z,5.17
2019-05-13T10:19:15.057Z,3.80
2019-05-13T10:21:47.997Z,4.90
2019-05-13T10:24:19.235Z,5.93
2019-05-13T10:26:51.918Z,10.87
2019-05-13T10:29:25.333Z,7.17
2019-05-13T10:31:57.909Z,7.30
2019-05-13T10:34:32.041Z,7.30
2019-05-13T10:37:07.296Z,8.27
2019-05-13T10:39:38.438Z,10.23
2019-05-13T10:42:12.651Z,9.60
2019-05-13T10:44:45.448Z,6.50
2019-05-13T10:47:17.216Z,4.80
2019-05-13T10:49:52.539Z,6.80
2019-05-13T10:52:27.887Z,5.60
2019-05-13T10:55:01.913Z,8.87
2019-05-13T10:57:42.406Z,5.37
2019-05-13T11:00:18.169Z,6.63
2019-05-13T11:02:54.949Z,5.37
2019-05-13T11:05:32.404Z,4.27
2019-05-13T11:08:02.675Z,3.20
2019-05-13T11:10:33.887Z,7.13
2019-05-13T11:13:06.127Z,4.90
2019-05-13T11:15:45.392Z,6.30
2019-05-13T11:18:19.483Z,6.57
2019-05-13T11:20:55.130Z,6.80
2019-05-13T11:23:27.677Z,7.23
2019-05-13T11:26:15.207Z,9.67
2019-05-13T11:28:48.395Z,4.67
2019-05-13T11:31:32.843Z,3.57
2019-05-13T11:34:04.294Z,3.83
2019-05-13T11:36:35.764Z,5.70
2019-05-13T11:39:12.928Z,6.17
2019-05-13T11:41:51.467Z,3.83
2019-05-13T11:44:25.746Z,5.83
2019-05-13T11:46:56.961Z,6.57
2019-05-13T11:49:28.113Z,8.23
2019-05-13T11:51:59.020Z,4.87
2019-05-13T11:54:30.241Z,5.37
2019-05-13T11:57:06.123Z,1.97
2019-05-13T11:59:42.384Z,4.37
2019-05-13T12:02:13.617Z,4.37
2019-05-13T12:04:45.116Z,4.93
2019-05-13T12:07:17.792Z,5.63
2019-05-13T12:09:54.307Z,5.67
2019-05-13T12:12:33.607Z,4.20
2019-05-13T12:15:26.562Z,3.83
2019-05-13T12:17:35.755Z,8.53
2019-05-13T12:20:12.017Z,4.77
2019-05-13T12:22:42.601Z,4.50
2019-05-13T12:25:14.216Z,4.07
2019-05-13T12:27:46.462Z,6.57
2019-05-13T12:30:22.561Z,4.53
2019-05-13T12:32:53.850Z,7.00
2019-05-13T12:35:26.885Z,4.30
2019-05-13T12:38:02.081Z,7.90
2019-05-13T12:40:34.057Z,2.80
2019-05-13T12:43:13.297Z,4.87
2019-05-13T12:45:45.096Z,6.53
2019-05-13T12:48:17.247Z,2.53
2019-05-13T12:50:48.955Z,2.90
2019-05-13T12:53:23.967Z,3.37
2019-05-13T12:55:57.067Z,5.60
2019-05-13T12:58:28.694Z,6.10
2019-05-13T13:01:01.493Z,5.33
2019-05-13T13:03:33.932Z,2.93
2019-05-13T13:08:51.010Z,3.07
2019-05-13T13:11:23.015Z,3.00
2019-05-13T13:13:59.450Z,3.50
2019-05-13T13:16:53.993Z,2.50
2019-05-13T13:19:44.221Z,5.43
2019-05-13T13:22:16.946Z,8.63
2019-05-13T13:25:07.474Z,3.63
2019-05-13T13:28:04.039Z,3.17
2019-05-13T13:30:23.137Z,3.90
2019-05-13T13:33:02.830Z,5.40
2019-05-13T13:35:35.685Z,3.87
2019-05-13T13:38:07.977Z,4.20
2019-05-13T13:40:45.693Z,6.33
2019-05-13T13:43:15.006Z,2.93
2019-05-13T13:46:07.284Z,4.20
2019-05-13T13:48:25.951Z,9.90
2019-05-13T13:50:58.412Z,7.03
2019-05-13T13:53:37.166Z,7.33
2019-05-13T13:56:07.886Z,4.27
2019-05-13T13:58:43.800Z,3.77
2019-05-13T14:01:19.902Z,8.33
2019-05-13T14:03:53.186Z,6.03
2019-05-13T14:07:13.205Z,4.80
2019-05-13T14:07:24.544Z,6.63
2019-05-13T14:09:02.082Z,9.97
2019-05-13T14:11:34.788Z,5.80
2019-05-13T14:14:08.201Z,5.33
2019-05-13T14:16:39.556Z,5.20
2019-05-13T14:19:11.698Z,6.13
2019-05-13T14:21:44.833Z,4.60
2019-05-13T14:24:39.196Z,3.43
2019-05-13T14:27:12.542Z,3.67
2019-05-13T14:29:49.169Z,6.10
2019-05-13T14:32:18.791Z,5.00
2019-05-13T14:34:52.607Z,6.87
2019-05-13T14:37:23.672Z,7.17
2019-05-13T14:39:54.645Z,5.83
2019-05-13T14:42:27.440Z,8.77
2019-05-13T14:44:58.737Z,7.87
2019-05-13T14:47:32.045Z,5.67
2019-05-13T14:50:06.222Z,3.57
2019-05-13T14:52:37.647Z,13.23
2019-05-13T14:55:13.952Z,7.40
2019-05-13T14:57:45.455Z,10.43
2019-05-13T15:00:22.138Z,6.90
2019-05-13T15:02:54.128Z,5.67
2019-05-13T15:05:28.447Z,3.23
2019-05-13T15:08:05.137Z,11.77
2019-05-13T15:10:38.492Z,5.03
2019-05-13T15:13:19.852Z,6.47
2019-05-13T15:15:54.037Z,9.17
2019-05-13T15:18:28.765Z,6.57
2019-05-13T15:21:12.108Z,6.37
2019-05-13T15:23:47.630Z,2.77
2019-05-13T15:26:39.166Z,4.83
2019-05-13T15:29:13.172Z,3.10
2019-05-13T15:31:46.866Z,6.43
2019-05-13T15:34:20.936Z,4.60
2019-05-13T15:36:58.844Z,2.43
2019-05-13T15:39:31.584Z,3.27
2019-05-13T15:42:03.428Z,2.17
2019-05-13T15:44:36.071Z,3.70
2019-05-13T15:47:22.206Z,2.33
2019-05-13T15:49:41.636Z,5.30
2019-05-13T15:52:13.057Z,2.40
2019-05-13T15:54:47.715Z,5.30
2019-05-13T15:57:22.290Z,2.77
2019-05-13T16:00:01.761Z,3.67
2019-05-13T16:02:31.925Z,8.73
2019-05-13T16:05:06.877Z,2.77
2019-05-13T16:07:52.556Z,5.23
2019-05-13T16:10:48.741Z,6.97
2019-05-13T16:13:27.470Z,2.53
2019-05-13T16:16:07.478Z,3.47
2019-05-13T16:18:42.190Z,2.30
2019-05-13T16:21:13.763Z,4.50
2019-05-13T16:23:45.172Z,1.80
2019-05-13T16:26:16.302Z,4.67
2019-05-13T16:28:47.761Z,4.00
2019-05-13T16:31:19.717Z,4.90
2019-05-13T16:33:52.201Z,4.57
2019-05-13T16:36:23.771Z,1.90
2019-05-13T16:38:55.307Z,1.53
2019-05-13T16:41:28.054Z,5.30
2019-05-13T16:44:00.063Z,5.57
2019-05-13T16:46:31.581Z,2.90
2019-05-13T16:49:03.255Z,4.63
2019-05-13T16:51:34.850Z,1.47
2019-05-13T16:54:06.797Z,1.30
2019-05-13T16:56:42.208Z,3.07
2019-05-13T16:59:13.931Z,1.87
2019-05-13T17:01:46.097Z,5.97
2019-05-13T17:04:18.302Z,4.53
2019-05-13T17:06:54.852Z,3.17
2019-05-13T17:10:25.491Z,2.87
2019-05-13T17:12:58.871Z,1.30
2019-05-13T17:15:31.183Z,3.83
2019-05-13T17:18:11.696Z,3.63
2019-05-13T17:20:41.453Z,4.17
2019-05-13T17:23:17.568Z,2.63
2019-05-13T17:26:07.877Z,3.53
2019-05-13T17:28:52.531Z,3.30
2019-05-13T17:31:24.756Z,2.07
2019-05-13T17:33:56.451Z,2.07
2019-05-13T17:36:29.538Z,2.77
2019-05-13T17:39:08.653Z,1.73
2019-05-13T17:41:44.128Z,1.57
2019-05-13T17:44:16.858Z,2.87
2019-05-13T17:46:48.346Z,3.87
2019-05-13T17:49:22.020Z,1.53
2019-05-13T17:52:02.139Z,3.10
2019-05-13T17:54:36.613Z,5.33
2019-05-13T17:57:12.400Z,3.63
2019-05-13T17:59:46.652Z,3.03
2019-05-13T18:02:18.384Z,3.20
2019-05-13T18:04:52.090Z,2.47
2019-05-13T18:07:25.943Z,1.40
2019-05-13T18:10:01.563Z,2.23
2019-05-13T18:12:33.323Z,2.53
2019-05-13T18:15:05.432Z,1.93
2019-05-13T18:17:45.028Z,3.73
2019-05-13T18:20:18.418Z,1.93
2019-05-13T18:22:53.767Z,3.77
2019-05-13T18:25:25.149Z,2.00
2019-05-13T18:27:57.199Z,5.87
2019-05-13T18:30:31.783Z,2.40
2019-05-13T18:33:04.889Z,2.43
2019-05-13T18:35:36.585Z,6.50
2019-05-13T18:38:08.138Z,6.37
2019-05-13T18:40:43.761Z,3.30
2019-05-13T18:43:33.022Z,6.90
2019-05-13T18:46:07.751Z,4.93
2019-05-13T18:48:58.043Z,4.97
2019-05-13T18:51:27.089Z,6.70
2019-05-13T18:54:02.076Z,5.37
2019-05-13T18:56:34.763Z,5.07
2019-05-13T18:59:09.147Z,4.93
2019-05-13T19:01:40.241Z,4.20
2019-05-13T19:04:15.931Z,5.37
2019-05-13T19:06:47.362Z,3.43
2019-05-13T19:09:21.814Z,5.83
2019-05-13T19:11:54.316Z,4.27
2019-05-13T19:14:31.721Z,4.90
2019-05-13T19:17:06.694Z,9.77
2019-05-13T19:19:38.259Z,3.57
2019-05-13T19:22:09.396Z,6.23
2019-05-13T19:24:41.665Z,8.67
2019-05-13T19:27:17.078Z,6.40
2019-05-13T19:29:48.985Z,5.13
2019-05-13T19:32:21.872Z,4.53
2019-05-13T19:34:58.440Z,1.87
2019-05-13T19:37:32.625Z,3.33
2019-05-13T19:40:13.705Z,2.87
2019-05-13T19:42:46.822Z,4.80
2019-05-13T19:45:21.789Z,5.13
2019-05-13T19:48:01.247Z,6.00
2019-05-13T19:50:33.315Z,3.80
2019-05-13T19:53:06.108Z,9.23
2019-05-13T19:55:41.446Z,4.10
2019-05-13T19:58:13.748Z,3.70
2019-05-13T20:00:45.713Z,4.07
2019-05-13T20:03:16.982Z,6.73
2019-05-13T20:05:51.298Z,3.70
2019-05-13T20:08:25.115Z,10.20
2019-05-13T20:10:58.423Z,5.33
2019-05-13T20:13:30.378Z,5.33
2019-05-13T20:16:02.646Z,4.30
2019-05-13T20:18:34.185Z,10.37
2019-05-13T20:21:06.534Z,12.73
2019-05-13T20:23:38.663Z,6.43
2019-05-13T20:27:06.115Z,4.03
2019-05-13T20:29:37.983Z,1.93
2019-05-13T20:32:11.837Z,4.63
2019-05-13T20:34:43.904Z,8.63
2019-05-13T20:37:14.888Z,3.47
2019-05-13T20:39:48.513Z,6.20
2019-05-13T20:42:19.402Z,2.60
2019-05-13T20:44:53.078Z,8.13
2019-05-13T20:47:24.168Z,6.30
2019-05-13T20:50:01.353Z,7.07
2019-05-13T20:52:27.513Z,5.03
2019-05-13T20:54:58.351Z,6.37
2019-05-13T20:57:32.404Z,1.63
2019-05-13T21:00:03.298Z,2.83
2019-05-13T21:02:36.102Z,4.37
2019-05-13T21:05:06.855Z,6.90
2019-05-13T21:07:37.541Z,5.20
2019-05-13T21:10:08.917Z,8.30
2019-05-13T21:12:41.788Z,4.47
2019-05-13T21:15:13.007Z,3.53
2019-05-13T21:17:44.414Z,5.90
2019-05-13T21:20:21.544Z,9.70
2019-05-13T21:22:51.578Z,9.20
2019-05-13T21:25:21.807Z,5.00
2019-05-13T21:27:54.473Z,4.77
2019-05-13T21:30:25.178Z,4.97
2019-05-13T21:32:58.868Z,10.60
2019-05-13T21:35:32.581Z,4.30
2019-05-13T21:38:02.959Z,8.13
2019-05-13T21:40:34.083Z,3.57
2019-05-13T21:43:07.878Z,5.77
2019-05-13T21:45:38.654Z,12.70
2019-05-13T21:48:11.045Z,10.10
2019-05-13T21:50:44.859Z,6.57
2019-05-13T21:53:15.548Z,6.03
2019-05-13T21:55:48.112Z,7.00
2019-05-13T21:58:18.898Z,8.70
2019-05-13T22:00:51.945Z,6.30
2019-05-13T22:03:25.890Z,3.37
2019-05-13T22:05:57.004Z,3.20
2019-05-13T22:08:27.601Z,6.00
2019-05-13T22:10:58.279Z,11.03
2019-05-13T22:13:31.370Z,6.00
2019-05-13T22:16:01.805Z,6.00
2019-05-13T22:18:32.339Z,4.70
2019-05-13T22:21:03.107Z,5.07
2019-05-13T22:23:33.820Z,11.27
2019-05-13T22:26:22.461Z,8.73
2019-05-13T22:29:09.467Z,8.07
2019-05-13T22:31:41.995Z,8.20
2019-05-13T22:34:12.837Z,7.90
2019-05-13T22:36:43.817Z,5.00
2019-05-13T22:39:14.514Z,7.90
2019-05-13T22:41:45.173Z,5.30
2019-05-13T22:44:15.932Z,5.03
2019-05-13T22:46:47.015Z,5.57
2019-05-13T22:49:17.724Z,4.67
2019-05-13T22:51:51.453Z,9.00
2019-05-13T22:54:22.169Z,7.47
2019-05-13T22:56:53.563Z,4.97
2019-05-13T22:59:24.370Z,4.87
2019-05-13T23:01:57.844Z,5.83
2019-05-13T23:04:28.584Z,14.20
2019-05-13T23:07:01.311Z,6.13
2019-05-13T23:09:32.300Z,11.10
2019-05-13T23:12:02.890Z,9.13
2019-05-13T23:14:35.143Z,6.20
2019-05-13T23:17:05.622Z,4.97
2019-05-13T23:19:36.178Z,4.23
2019-05-13T23:22:07.008Z,8.30
2019-05-13T23:24:37.834Z,10.17
2019-05-13T23:27:10.979Z,8.10
2019-05-13T23:29:41.360Z,3.73
2019-05-13T23:32:12.280Z,5.00
2019-05-13T23:34:43.057Z,7.37
2019-05-13T23:37:14.792Z,10.57
2019-05-13T23:39:45.549Z,5.37
2019-05-13T23:42:16.155Z,6.00
2019-05-13T23:44:47.827Z,12.47
2019-05-13T23:47:18.834Z,9.00
2019-05-13T23:49:51.213Z,5.37
2019-05-13T23:52:22.072Z,7.27
2019-05-13T23:54:52.751Z,12.03
2019-05-13T23:57:23.297Z,8.07
2019-05-13T23:59:54.154Z,5.47
